Time;durP1;ratioP1;P1;durP2;ratioP2;P2;SDS_P1;SDS_P2;PMS_P1;PMS_P2;Temp;Humidity;BMP_temperature;BMP_pressure;BME280_temperature;BME280_humidity;BME280_pressure;Samples;Min_cycle;Max_cycle;Signal;HPM_P1;HPM_P2
2022/04/10 00:02:08;;;;;;;4.10;3.10;;;;;;;5.05;77.66;97905.80;105122;1271;75366;-27
2022/04/10 00:04:37;;;;;;;12.80;4.10;;;;;;;5.25;76.49;97915.34;105145;1274;75079;-27
2022/04/10 00:07:18;;;;;;;9.10;5.80;;;;;;;5.06;77.51;97917.23;104926;1271;74812;-26
2022/04/10 00:09:47;;;;;;;8.80;4.40;;;;;;;5.00;77.88;97914.07;104978;1271;61160;-28
2022/04/10 00:12:22;;;;;;;13.00;5.60;;;;;;;4.91;78.15;97903.05;104892;1271;61056;-27
2022/04/10 00:14:51;;;;;;;6.40;4.70;;;;;;;4.76;78.50;97896.11;104890;1271;75527;-27
2022/04/10 00:17:40;;;;;;;7.20;4.20;;;;;;;5.01;77.53;97892.70;104735;1274;77084;-27
2022/04/10 00:20:11;;;;;;;8.00;4.50;;;;;;;5.14;76.77;97889.63;104720;1274;74380;-27
2022/04/10 00:22:44;;;;;;;9.80;5.10;;;;;;;5.05;76.91;97896.38;104611;1274;61181;-27
2022/04/10 00:25:15;;;;;;;8.20;5.30;;;;;;;4.89;77.54;97903.23;104629;1274;61043;-27
2022/04/10 00:27:44;;;;;;;8.30;4.50;;;;;;;4.70;78.56;97908.63;104643;1274;75382;-27
2022/04/10 00:30:15;;;;;;;6.90;4.20;;;;;;;4.55;79.04;97905.41;104857;1274;76520;-27
2022/04/10 00:32:44;;;;;;;12.90;4.90;;;;;;;4.73;78.65;97907.70;104631;1274;74416;-27
2022/04/10 00:35:14;;;;;;;6.40;4.60;;;;;;;5.01;77.33;97907.48;104828;1274;62092;-27
2022/04/10 00:37:43;;;;;;;7.20;5.00;;;;;;;5.01;77.03;97909.88;105088;1274;61022;-27
2022/04/10 00:40:13;;;;;;;9.80;4.60;;;;;;;4.79;77.69;97912.59;105144;1274;75644;-28
2022/04/10 00:42:47;;;;;;;6.30;4.40;;;;;;;4.54;78.77;97921.98;104776;1274;74717;-27
2022/04/10 00:45:17;;;;;;;7.60;4.70;;;;;;;4.41;78.92;97917.27;104697;1274;74461;-28
2022/04/10 00:47:57;;;;;;;10.60;4.80;;;;;;;4.66;78.31;97917.20;105001;1272;61153;-27
2022/04/10 00:50:26;;;;;;;7.30;4.10;;;;;;;4.88;77.22;97914.98;105087;1274;62778;-27
2022/04/10 00:52:57;;;;;;;5.90;4.10;;;;;;;4.99;76.82;97910.34;105129;1274;75303;-27
2022/04/10 00:55:33;;;;;;;6.00;4.20;;;;;;;4.80;77.43;97913.91;104703;1274;76035;-27
2022/04/10 00:58:02;;;;;;;7.00;5.30;;;;;;;4.66;78.13;97917.36;104795;1274;74998;-27
2022/04/10 01:00:36;;;;;;;9.60;5.60;;;;;;;4.44;79.13;97922.05;104752;1272;61073;-27
2022/04/10 01:03:05;;;;;;;6.10;4.60;;;;;;;4.40;79.53;97917.34;104678;1274;61092;-27
2022/04/10 01:05:35;;;;;;;7.80;4.50;;;;;;;4.78;77.81;97918.84;104761;1272;75517;-27
2022/04/10 01:08:07;;;;;;;8.50;4.90;;;;;;;4.85;77.27;97917.77;104727;1274;75801;-27
2022/04/10 01:10:36;;;;;;;8.10;5.10;;;;;;;4.73;77.48;97919.73;105071;1271;74509;-27
2022/04/10 01:13:05;;;;;;;9.10;6.10;;;;;;;4.62;77.97;97916.42;105153;1274;61065;-27
2022/04/10 01:15:35;;;;;;;7.50;4.70;;;;;;;4.53;78.26;97922.39;105163;1274;61105;-26
2022/04/10 01:18:06;;;;;;;10.60;4.40;;;;;;;4.25;79.38;97927.59;104910;1273;75614;-26
2022/04/10 01:20:55;;;;;;;8.90;4.90;;;;;;;4.68;77.93;97931.23;104411;1274;76995;-26
2022/04/10 01:23:25;;;;;;;7.10;4.30;;;;;;;4.96;76.22;97939.81;104628;1274;74790;-26
2022/04/10 01:25:55;;;;;;;8.10;5.10;;;;;;;4.94;76.20;97945.12;104623;1274;62371;-26
2022/04/10 01:28:24;;;;;;;5.40;3.90;;;;;;;4.77;76.88;97957.63;104971;1274;62312;-27
2022/04/10 01:30:54;;;;;;;6.90;4.20;;;;;;;4.48;78.02;97948.41;104831;1274;75606;-26
2022/04/10 01:33:23;;;;;;;6.70;4.60;;;;;;;4.30;78.65;97952.94;104838;1271;76037;-27
2022/04/10 01:35:52;;;;;;;8.70;4.50;;;;;;;4.15;79.35;97960.91;104775;1274;74263;-27
2022/04/10 01:38:22;;;;;;;4.30;3.30;;;;;;;4.53;78.05;97969.84;104803;1274;61230;-26
2022/04/10 01:40:52;;;;;;;7.00;4.20;;;;;;;4.78;76.83;97969.20;104681;1274;62425;-26
2022/04/10 01:43:22;;;;;;;9.40;4.30;;;;;;;4.86;76.32;97970.98;104809;1271;75371;-26
2022/04/10 01:45:52;;;;;;;7.10;3.40;;;;;;;4.65;76.90;97970.20;105056;1272;75995;-27
2022/04/10 01:48:21;;;;;;;8.20;4.30;;;;;;;4.45;77.48;97964.58;104872;1274;74750;-26
2022/04/10 01:50:50;;;;;;;8.10;4.70;;;;;;;4.25;78.51;97964.80;104951;1274;61153;-27
2022/04/10 01:53:19;;;;;;;10.80;5.70;;;;;;;4.03;79.49;97963.15;104669;1274;61112;-27
2022/04/10 01:55:48;;;;;;;7.00;4.40;;;;;;;4.18;79.28;97963.76;104855;1271;75483;-26
2022/04/10 01:58:19;;;;;;;6.90;4.20;;;;;;;4.57;77.60;97970.80;104989;1274;74734;-27
2022/04/10 02:00:48;;;;;;;6.40;4.60;;;;;;;4.52;77.37;97975.91;105034;1271;74399;-26
2022/04/10 02:03:19;;;;;;;6.00;4.00;;;;;;;4.41;77.76;97983.45;105094;1272;61153;-26
2022/04/10 02:05:52;;;;;;;;;;;;;;;4.25;78.50;97985.29;105117;1272;61112;-26
2022/04/10 02:08:22;;;;;;;7.70;5.20;;;;;;;4.06;79.30;97982.17;104847;1271;75650;-27
2022/04/10 02:10:53;;;;;;;9.30;5.10;;;;;;;3.89;79.99;97983.40;104823;1274;76171;-27
2022/04/10 02:13:23;;;;;;;7.10;4.10;;;;;;;3.84;80.44;97987.98;104825;1271;74224;-26
2022/04/10 02:15:52;;;;;;;6.00;3.80;;;;;;;4.29;78.73;97989.66;104740;1272;61082;-26
2022/04/10 02:18:21;;;;;;;6.00;3.80;;;;;;;4.44;77.71;97988.08;104932;1271;61038;-27
2022/04/10 02:21:05;;;;;;;4.50;3.80;;;;;;;4.34;78.01;97989.08;104949;1271;75547;-26
2022/04/10 02:23:36;;;;;;;7.50;3.60;;;;;;;4.15;78.60;97990.09;105045;1273;73962;-26
2022/04/10 02:26:10;;;;;;;10.50;5.10;;;;;;;3.82;80.00;97992.46;104656;1274;74638;-26
2022/04/10 02:28:41;;;;;;;6.30;4.50;;;;;;;3.78;79.97;97992.38;105077;1274;61557;-26
2022/04/10 02:31:10;;;;;;;8.60;4.10;;;;;;;4.04;79.25;97997.40;104874;1274;61106;-26
2022/04/10 02:33:43;;;;;;;5.90;4.00;;;;;;;4.50;77.24;97999.64;105075;1271;75186;-26
2022/04/10 02:36:14;;;;;;;8.80;4.10;;;;;;;4.46;76.90;97996.63;104820;1272;75750;-26
2022/04/10 02:38:43;;;;;;;8.40;4.30;;;;;;;4.28;77.77;97998.99;105099;1271;74559;-28
2022/04/10 02:41:13;;;;;;;9.70;4.60;;;;;;;3.98;78.73;97999.71;104793;1274;61854;-27
2022/04/10 02:43:43;;;;;;;5.80;4.50;;;;;;;3.79;79.60;97996.27;105110;1271;61968;-29
2022/04/10 02:46:13;;;;;;;9.40;3.40;;;;;;;3.68;80.14;97997.05;105047;1272;74576;-31
2022/04/10 02:48:42;;;;;;;5.00;3.70;;;;;;;3.98;79.15;97997.70;104955;1273;76000;-29
2022/04/10 02:51:13;;;;;;;8.20;4.40;;;;;;;4.34;77.52;98001.52;104866;1271;73210;-26
2022/04/10 02:53:43;;;;;;;9.30;4.50;;;;;;;4.21;77.39;98000.17;104892;1273;61140;-27
2022/04/10 02:56:12;;;;;;;5.30;3.90;;;;;;;3.94;78.56;97998.64;105004;1271;61150;-29
2022/04/10 02:58:41;;;;;;;11.80;4.60;;;;;;;3.74;79.16;97998.64;104954;1274;75540;-29
2022/04/10 03:01:11;;;;;;;7.80;4.60;;;;;;;3.56;79.92;97995.27;105021;1274;76056;-29
2022/04/10 03:03:43;;;;;;;7.30;4.60;;;;;;;3.43;80.44;98003.90;104875;1274;74713;-30
2022/04/10 03:06:19;;;;;;;8.20;4.90;;;;;;;3.75;79.15;98004.73;104680;1273;61085;-27
2022/04/10 03:08:50;;;;;;;7.20;4.50;;;;;;;3.99;77.95;98006.04;105004;1274;61221;-28
2022/04/10 03:11:20;;;;;;;10.80;4.10;;;;;;;3.85;78.17;98004.05;104903;1274;75616;-27
2022/04/10 03:13:49;;;;;;;6.20;3.40;;;;;;;3.75;78.69;98007.32;105138;1274;76357;-27
2022/04/10 03:16:18;;;;;;;6.40;3.90;;;;;;;3.56;79.17;98006.77;104871;1272;74467;-27
2022/04/10 03:18:47;;;;;;;7.00;4.30;;;;;;;3.43;79.90;98011.59;105097;1272;61495;-27
2022/04/10 03:21:17;;;;;;;12.90;5.80;;;;;;;3.46;80.12;98016.35;105089;1272;61085;-27
2022/04/10 03:23:46;;;;;;;5.60;3.50;;;;;;;3.81;78.35;98014.35;104898;1271;74713;-27
2022/04/10 03:26:15;;;;;;;7.10;4.00;;;;;;;3.97;77.34;98015.77;105163;1271;74001;-27
2022/04/10 03:28:44;;;;;;;6.20;3.90;;;;;;;3.92;77.60;98022.69;105148;1272;74400;-27
2022/04/10 03:31:13;;;;;;;7.50;4.80;;;;;;;3.73;78.15;98025.65;105116;1274;61848;-28
2022/04/10 03:33:47;;;;;;;10.70;4.80;;;;;;;3.55;78.88;98027.96;104999;1274;61959;-28
2022/04/10 03:36:16;;;;;;;7.30;3.40;;;;;;;3.43;79.55;98035.83;104886;1271;75574;-28
2022/04/10 03:38:45;;;;;;;5.50;2.80;;;;;;;3.65;78.99;98039.11;104990;1271;76572;-27
2022/04/10 03:41:14;;;;;;;5.80;3.70;;;;;;;4.05;77.22;98039.45;105039;1274;74444;-28
2022/04/10 03:43:43;;;;;;;6.30;3.70;;;;;;;4.11;76.80;98041.94;104967;1271;61147;-27
2022/04/10 03:46:12;;;;;;;9.60;4.60;;;;;;;3.77;77.68;98043.30;104847;1274;61144;-27
2022/04/10 03:48:43;;;;;;;9.80;4.30;;;;;;;3.68;78.18;98051.77;104804;1274;74583;-28
2022/04/10 03:51:14;;;;;;;6.30;3.50;;;;;;;3.55;78.59;98053.34;104778;1272;75982;-28
2022/04/10 03:53:45;;;;;;;3.40;2.80;;;;;;;3.49;79.22;98060.30;104952;1272;74403;-28
2022/04/10 03:56:31;;;;;;;5.70;3.40;;;;;;;3.69;78.26;98058.96;104727;1274;61255;-27
2022/04/10 03:59:00;;;;;;;5.10;4.00;;;;;;;3.93;77.12;98059.34;105083;1274;61104;-27
2022/04/10 04:01:31;;;;;;;5.60;4.00;;;;;;;4.10;76.31;98061.59;104974;1272;73772;-28
2022/04/10 04:04:00;;;;;;;6.10;4.50;;;;;;;3.99;76.47;98074.33;105060;1272;76063;-28
2022/04/10 04:06:30;;;;;;;7.40;4.30;;;;;;;3.75;77.27;98075.52;104994;1272;74479;-27
2022/04/10 04:09:18;;;;;;;7.50;4.60;;;;;;;3.54;77.98;98073.85;104670;1274;61434;-27
2022/04/10 04:11:52;;;;;;;;;;;;;;;3.47;78.66;98077.02;104733;1274;62049;-28
2022/04/10 04:14:21;;;;;;;7.10;3.90;;;;;;;3.80;77.04;98074.45;104923;1272;75621;-27
2022/04/10 04:16:51;;;;;;;6.90;3.70;;;;;;;3.91;76.56;98074.61;105004;1274;74960;-27
2022/04/10 04:19:20;;;;;;;5.70;3.20;;;;;;;3.96;76.33;98070.99;105065;1271;74480;-27
2022/04/10 04:21:49;;;;;;;5.70;3.90;;;;;;;3.95;76.19;98076.39;105077;1274;61148;-27
2022/04/10 04:24:19;;;;;;;5.30;3.50;;;;;;;3.71;76.57;98077.98;104833;1271;61136;-28
2022/04/10 04:26:54;;;;;;;7.70;4.00;;;;;;;3.58;77.05;98080.42;105083;1273;75565;-28
2022/04/10 04:29:24;;;;;;;6.40;4.30;;;;;;;3.52;77.37;98082.92;105124;1272;76003;-28
2022/04/10 04:31:54;;;;;;;6.50;3.30;;;;;;;3.53;77.03;98080.75;105128;1272;73461;-27
2022/04/10 04:34:23;;;;;;;3.40;2.70;;;;;;;3.94;75.37;98086.09;105132;1274;62181;-28
2022/04/10 04:36:54;;;;;;;5.00;3.00;;;;;;;4.20;74.01;98085.42;105097;1274;61778;-27
2022/04/10 04:39:22;;;;;;;4.30;3.20;;;;;;;4.16;74.35;98092.45;105099;1274;75301;-27
2022/04/10 04:41:51;;;;;;;7.20;3.60;;;;;;;3.82;74.90;98099.06;105034;1274;75740;-27
2022/04/10 04:44:20;;;;;;;6.80;4.50;;;;;;;3.64;75.65;98102.34;105019;1274;74249;-28
2022/04/10 04:46:49;;;;;;;7.20;4.00;;;;;;;3.61;75.94;98114.52;105045;1271;61022;-28
2022/04/10 04:49:19;;;;;;;5.70;3.90;;;;;;;3.52;76.46;98119.59;104851;1274;61089;-28
2022/04/10 04:51:48;;;;;;;5.60;3.80;;;;;;;3.68;76.15;98125.10;104820;1271;74379;-28
2022/04/10 04:54:18;;;;;;;5.50;3.30;;;;;;;4.17;74.52;98130.98;105007;1272;76559;-27
2022/04/10 04:56:48;;;;;;;6.50;3.90;;;;;;;4.28;74.03;98139.55;105078;1274;73332;-27
2022/04/10 04:59:17;;;;;;;8.90;4.00;;;;;;;4.06;74.26;98137.40;105098;1274;61104;-27
2022/04/10 05:01:46;;;;;;;6.90;3.70;;;;;;;3.85;74.43;98143.16;104978;1271;61179;-28
2022/04/10 05:04:17;;;;;;;8.10;4.90;;;;;;;3.72;75.53;98145.57;104800;1274;75280;-28
2022/04/10 05:06:47;;;;;;;7.60;3.90;;;;;;;3.69;75.62;98145.41;105143;1271;75882;-27
2022/04/10 05:09:17;;;;;;;4.30;2.00;;;;;;;3.64;75.96;98142.13;105116;1272;74411;-25
2022/04/10 05:11:47;;;;;;;6.90;3.90;;;;;;;4.24;74.01;98141.70;105085;1274;62669;-26
2022/04/10 05:14:35;;;;;;;3.90;3.00;;;;;;;4.89;72.26;98142.80;104997;1274;61978;-26
2022/04/10 05:17:08;;;;;;;5.20;3.60;;;;;;;4.95;70.69;98141.30;105083;1271;75511;-26
2022/04/10 05:20:02;;;;;;;6.10;3.60;;;;;;;4.75;70.66;98140.71;105030;1274;77098;-26
2022/04/10 05:22:33;;;;;;;12.10;4.50;;;;;;;4.99;71.15;98147.39;105110;1274;74404;-26
2022/04/10 05:25:06;;;;;;;4.20;3.20;;;;;;;5.00;69.70;98148.20;104793;1271;61106;-26
2022/04/10 05:27:39;;;;;;;6.30;3.80;;;;;;;4.98;69.57;98146.14;104886;1271;61122;-26
2022/04/10 05:30:09;;;;;;;6.10;4.60;;;;;;;4.90;69.93;98150.79;104929;1271;75579;-26
2022/04/10 05:32:42;;;;;;;5.50;3.70;;;;;;;4.80;68.31;98151.34;105104;1274;76013;-26
2022/04/10 05:35:12;;;;;;;7.10;4.10;;;;;;;4.76;67.93;98151.80;104633;1274;394925;-26
2022/04/10 05:37:42;;;;;;;11.80;4.50;;;;;;;4.60;68.13;98154.31;105027;1274;61067;-26
2022/04/10 05:40:12;;;;;;;7.10;3.60;;;;;;;4.58;67.49;98156.00;104894;1274;62040;-26
2022/04/10 05:42:47;;;;;;;5.70;3.20;;;;;;;4.66;67.40;98150.80;104693;1274;75644;-26
2022/04/10 05:45:19;;;;;;;8.40;3.80;;;;;;;4.78;65.83;98157.69;104880;1274;76025;-26
2022/04/10 05:47:50;;;;;;;5.80;2.70;;;;;;;4.75;64.83;98151.89;104956;1274;74577;-26
2022/04/10 05:50:22;;;;;;;8.60;4.40;;;;;;;4.89;65.26;98158.27;104852;1271;61141;-26
2022/04/10 05:52:51;;;;;;;10.30;4.50;;;;;;;5.04;65.29;98157.39;104886;1274;61141;-26
2022/04/10 05:55:24;;;;;;;5.80;3.80;;;;;;;4.98;64.34;98154.92;104886;1272;75541;-26
2022/04/10 05:57:54;;;;;;;5.00;3.00;;;;;;;5.16;63.84;98154.80;104790;1274;76560;-28
2022/04/10 06:00:24;;;;;;;7.40;3.80;;;;;;;5.22;63.25;98159.69;104817;1272;73968;-28
2022/04/10 06:03:14;;;;;;;6.80;4.00;;;;;;;5.16;63.52;98166.64;104770;1272;61093;-26
2022/04/10 06:05:45;;;;;;;8.30;4.50;;;;;;;5.13;63.20;98161.91;104759;1271;61769;-26
2022/04/10 06:08:21;;;;;;;5.50;2.50;;;;;;;5.16;61.96;98163.69;104757;1274;74327;-26
2022/04/10 06:11:10;;;;;;;6.70;4.20;;;;;;;5.26;61.15;98167.64;104735;1272;76208;-26
2022/04/10 06:13:39;;;;;;;6.50;3.70;;;;;;;5.30;61.08;98168.42;105038;1273;72859;-26
2022/04/10 06:16:32;;;;;;;6.30;3.00;;;;;;;5.37;60.56;98173.39;105065;1274;61327;-27
2022/04/10 06:19:02;;;;;;;7.30;3.90;;;;;;;5.48;61.32;98177.60;105104;1274;62090;-27
2022/04/10 06:21:40;;;;;;;8.60;3.60;;;;;;;5.47;58.15;98176.77;105075;1275;75681;-27
2022/04/10 06:24:10;;;;;;;4.50;3.10;;;;;;;5.55;58.09;98181.17;105142;1272;74786;-27
2022/04/10 06:26:44;;;;;;;4.90;3.60;;;;;;;5.46;56.78;98177.56;105073;1271;74450;-26
2022/04/10 06:29:13;;;;;;;6.60;3.40;;;;;;;5.53;56.28;98184.78;104856;1271;61141;-27
2022/04/10 06:31:52;;;;;;;6.20;3.30;;;;;;;5.54;55.76;98183.33;104851;1271;61028;-26
2022/04/10 06:34:23;;;;;;;4.20;2.80;;;;;;;5.54;56.59;98188.16;104901;1271;75498;-26
2022/04/10 06:36:52;;;;;;;6.00;2.80;;;;;;;5.56;56.11;98186.81;105103;1271;76004;-26
2022/04/10 06:39:22;;;;;;;4.60;2.50;;;;;;;5.65;56.51;98186.84;105020;1272;72788;-27
2022/04/10 06:41:54;;;;;;;8.00;3.30;;;;;;;5.63;56.89;98191.42;104773;1274;61187;-27
2022/04/10 06:45:01;;;;;;;4.90;2.70;;;;;;;5.73;58.09;98199.66;105108;1271;61034;-26
2022/04/10 06:47:59;;;;;;;6.20;2.10;;;;;;;5.86;57.25;98202.17;104984;1274;75527;-26
2022/04/10 06:50:36;;;;;;;4.30;2.50;;;;;;;5.83;56.41;98203.54;104946;1274;76019;-26
2022/04/10 06:53:10;;;;;;;5.50;3.10;;;;;;;5.83;55.64;98203.06;105057;1271;73927;-26
2022/04/10 06:55:39;;;;;;;8.30;3.30;;;;;;;5.89;56.84;98209.17;104998;1273;61282;-26
2022/04/10 06:58:10;;;;;;;6.20;3.10;;;;;;;6.00;55.40;98206.80;105073;1271;62135;-27
2022/04/10 07:00:41;;;;;;;7.30;2.90;;;;;;;6.06;55.58;98201.39;104795;1274;74368;-27
2022/04/10 07:03:11;;;;;;;5.10;2.90;;;;;;;5.92;55.16;98197.90;104752;1274;76144;-26
2022/04/10 07:05:40;;;;;;;21.20;8.70;;;;;;;5.97;55.83;98204.26;104840;1274;74409;-26
2022/04/10 07:08:37;;;;;;;8.20;2.50;;;;;;;6.02;54.27;98205.10;104916;1274;61083;-27
2022/04/10 07:11:06;;;;;;;5.10;2.90;;;;;;;5.98;54.40;98202.79;104946;1271;62394;-26
2022/04/10 07:13:35;;;;;;;4.30;2.90;;;;;;;6.01;55.47;98202.27;104772;1274;75516;-27
2022/04/10 07:16:05;;;;;;;5.10;2.10;;;;;;;6.11;54.67;98206.16;105013;1275;76053;-26
2022/04/10 07:18:44;;;;;;;3.50;2.30;;;;;;;6.25;54.33;98208.39;105028;1275;73587;-26
2022/04/10 07:23:41;;;;;;;6.30;3.60;;;;;;;6.17;53.53;98212.42;105088;1271;61063;-26
2022/04/10 07:24:06;;;;;;;3.90;2.50;;;;;;;6.32;54.08;98213.67;105142;1271;61131;-26
2022/04/10 07:26:39;;;;;;;8.20;3.10;;;;;;;6.38;53.88;98223.73;104919;1274;74421;-27
2022/04/10 07:29:12;;;;;;;2.90;2.00;;;;;;;6.45;53.38;98228.03;104938;1274;76021;-28
2022/04/10 07:31:43;;;;;;;7.50;4.00;;;;;;;6.51;53.51;98222.23;105093;1274;74206;-26
2022/04/10 07:34:13;;;;;;;6.10;2.50;;;;;;;6.53;52.93;98220.17;105028;1274;61427;-27
2022/04/10 07:37:09;;;;;;;25.30;10.40;;;;;;;6.68;53.31;98226.44;104773;1274;61234;-26
2022/04/10 07:39:52;;;;;;;5.20;3.40;;;;;;;6.89;52.60;98229.95;104836;1274;75456;-27
2022/04/10 07:42:26;;;;;;;;;;;;;;;6.90;50.70;98230.23;104889;1274;75797;-26
2022/04/10 07:48:22;;;;;;;39.00;15.20;;;;;;;6.91;49.80;98229.50;105117;1271;62304;-26
2022/04/10 07:50:51;;;;;;;5.60;2.90;;;;;;;6.90;49.00;98227.34;105147;1274;62095;-27
2022/04/10 07:53:23;;;;;;;5.20;1.70;;;;;;;7.07;50.10;98229.42;104984;1274;77347;-26
2022/04/10 07:55:57;;;;;;;2.30;1.90;;;;;;;7.04;49.37;98231.06;104898;1274;75130;-26
2022/04/10 07:58:26;;;;;;;4.20;2.10;;;;;;;7.18;50.03;98239.04;105127;1274;74446;-26
2022/04/10 08:00:57;;;;;;;3.70;2.30;;;;;;;7.30;48.79;98239.70;105122;1274;61320;-26
2022/04/10 08:03:51;;;;;;;6.10;3.00;;;;;;;7.17;48.21;98244.85;105055;1274;62914;-26
2022/04/10 08:06:45;;;;;;;7.20;2.80;;;;;;;7.32;47.64;98248.11;105109;1274;75885;-25
2022/04/10 08:09:34;;;;;;;10.50;4.90;;;;;;;7.23;45.43;98248.86;105073;1271;75329;-26
2022/04/10 08:12:22;;;;;;;4.30;2.80;;;;;;;7.33;45.32;98250.87;104943;1274;73351;-26
2022/04/10 08:14:51;;;;;;;23.60;8.00;;;;;;;7.23;44.90;98253.04;105109;1274;61036;-26
2022/04/10 08:17:21;;;;;;;5.30;2.50;;;;;;;7.18;44.98;98252.85;105020;1274;61157;-27
2022/04/10 08:19:57;;;;;;;6.20;2.40;;;;;;;7.21;46.24;98254.56;105103;1273;75543;-26
2022/04/10 08:22:26;;;;;;;11.60;1.80;;;;;;;7.30;46.16;98254.70;105158;1274;75774;-26
2022/04/10 08:24:55;;;;;;;4.60;2.20;;;;;;;7.34;45.95;98250.94;104901;1274;74355;-26
2022/04/10 08:27:24;;;;;;;6.70;2.70;;;;;;;7.43;45.94;98253.35;104928;1274;61099;-28
2022/04/10 08:29:55;;;;;;;4.10;2.30;;;;;;;7.43;44.88;98255.02;104784;1274;61150;-28
2022/04/10 08:32:24;;;;;;;10.60;4.00;;;;;;;7.53;45.52;98255.45;104831;1274;74535;-26
2022/04/10 08:34:54;;;;;;;12.60;4.50;;;;;;;7.39;45.08;98256.27;105083;1272;75653;-26
2022/04/10 08:37:23;;;;;;;10.40;4.60;;;;;;;7.51;45.36;98257.64;104857;1274;74510;-26
2022/04/10 08:39:56;;;;;;;8.20;3.90;;;;;;;7.57;45.68;98253.53;105018;1274;61054;-28
2022/04/10 08:42:25;;;;;;;8.50;4.40;;;;;;;7.70;46.15;98252.91;105051;1274;61900;-28
2022/04/10 08:44:57;;;;;;;5.10;2.80;;;;;;;7.62;44.77;98251.98;105191;1274;74311;-27
2022/04/10 08:47:45;;;;;;;8.30;4.40;;;;;;;7.87;45.15;98252.51;105026;1274;77086;-26
2022/04/10 08:50:15;;;;;;;3.60;2.20;;;;;;;7.73;42.83;98248.13;105143;1274;74436;-26
2022/04/10 08:52:44;;;;;;;5.20;2.50;;;;;;;7.75;42.64;98244.48;104923;1273;61923;-27
2022/04/10 08:55:33;;;;;;;4.90;2.30;;;;;;;7.91;42.51;98242.98;104834;1271;62010;-26
2022/04/10 08:58:03;;;;;;;6.20;3.00;;;;;;;8.17;40.77;98240.30;105145;1274;75397;-26
2022/04/10 09:00:31;;;;;;;5.50;2.50;;;;;;;8.19;40.40;98240.91;105037;1274;74727;-26
2022/04/10 09:03:00;;;;;;;4.20;1.60;;;;;;;8.08;40.02;98240.06;105149;1271;74358;-26
2022/04/10 09:05:30;;;;;;;9.80;2.50;;;;;;;8.08;39.63;98240.94;105129;1273;61660;-26
2022/04/10 09:08:12;;;;;;;7.70;3.70;;;;;;;8.25;39.29;98237.83;105071;1274;61077;-26
2022/04/10 09:11:20;;;;;;;3.00;1.40;;;;;;;8.27;41.46;98236.41;104610;1275;75761;-26
2022/04/10 09:13:51;;;;;;;4.80;1.60;;;;;;;8.21;39.44;98236.17;104120;1281;76089;-26
2022/04/10 09:16:23;;;;;;;6.80;1.90;;;;;;;8.28;40.00;98232.67;104165;1281;75204;-26
2022/04/10 09:19:10;;;;;;;4.90;2.00;;;;;;;8.38;39.97;98232.90;104319;1281;61171;-25
2022/04/10 09:21:43;;;;;;;7.10;3.20;;;;;;;8.42;38.30;98232.66;104275;1281;61906;-26
2022/04/10 09:24:13;;;;;;;3.10;2.00;;;;;;;8.50;39.07;98236.19;104300;1281;75723;-26
2022/04/10 09:26:48;;;;;;;4.30;1.70;;;;;;;8.49;38.86;98236.45;104214;1281;76054;-26
2022/04/10 09:29:21;;;;;;;4.00;2.30;;;;;;;8.49;39.53;98236.99;104154;1281;74133;-26
2022/04/10 09:31:54;;;;;;;3.30;1.20;;;;;;;8.49;38.30;98241.98;104257;1280;61122;-27
2022/04/10 09:34:33;;;;;;;3.50;1.60;;;;;;;8.38;35.91;98238.61;104316;1280;61180;-26
2022/04/10 09:37:23;;;;;;;1.90;1.30;;;;;;;8.51;39.11;98237.17;104173;1280;75631;-26
2022/04/10 09:39:52;;;;;;;2.90;1.40;;;;;;;8.38;39.33;98237.83;104210;1279;76376;-26
2022/04/10 09:42:29;;;;;;;5.80;1.30;;;;;;;8.35;38.57;98234.66;104200;1280;73300;-26
2022/04/10 09:45:28;;;;;;;4.40;1.20;;;;;;;8.47;38.78;98234.17;104471;1274;61867;-26
2022/04/10 09:47:57;;;;;;;2.70;1.50;;;;;;;8.38;37.63;98231.70;105007;1274;61049;-26
2022/04/10 09:50:31;;;;;;;4.20;1.40;;;;;;;8.44;38.21;98232.38;104815;1274;74674;-26
2022/04/10 09:53:06;;;;;;;4.10;1.80;;;;;;;8.57;37.33;98231.30;104792;1274;75994;-26
2022/04/10 09:55:39;;;;;;;2.30;1.30;;;;;;;8.55;37.57;98234.23;104606;1274;74421;-26
2022/04/10 09:58:23;;;;;;;1.40;1.10;;;;;;;8.67;37.20;98232.70;104862;1274;61168;-26
2022/04/10 10:00:54;;;;;;;3.60;1.50;;;;;;;8.58;36.59;98229.79;104649;1274;61032;-26
2022/04/10 10:03:26;;;;;;;1.90;1.20;;;;;;;8.42;38.25;98235.79;104753;1274;75595;-28
2022/04/10 10:05:56;;;;;;;2.70;1.70;;;;;;;8.37;38.43;98236.23;104806;1274;75972;-26
2022/04/10 10:08:46;;;;;;;4.40;2.50;;;;;;;8.62;37.48;98235.52;104630;1273;75546;-26
2022/04/10 10:11:17;;;;;;;2.90;1.40;;;;;;;8.72;37.18;98233.79;104678;1274;62601;-26
2022/04/10 10:14:06;;;;;;;2.70;1.40;;;;;;;8.76;37.15;98232.93;105032;1274;63357;-26
2022/04/10 10:16:37;;;;;;;2.50;1.50;;;;;;;8.66;37.58;98230.52;105055;1274;74576;-26
2022/04/10 10:19:29;;;;;;;9.60;3.00;;;;;;;8.64;37.36;98235.85;104762;1274;76581;-26
2022/04/10 10:21:58;;;;;;;8.50;3.80;;;;;;;8.80;36.94;98235.72;104706;1271;74168;-26
2022/04/10 10:24:56;;;;;;;6.50;2.60;;;;;;;9.01;36.85;98240.64;104881;1272;61927;-27
2022/04/10 10:27:44;;;;;;;5.00;1.70;;;;;;;8.94;36.80;98239.91;104747;1272;61245;-27
2022/04/10 10:30:27;;;;;;;3.80;1.80;;;;;;;9.08;37.64;98245.76;104776;1272;75575;-27
2022/04/10 10:33:09;;;;;;;4.10;1.40;;;;;;;9.11;36.89;98243.55;104799;1271;76204;-28
2022/04/10 10:35:40;;;;;;;2.50;1.50;;;;;;;8.99;37.07;98243.41;104842;1272;74584;-28
2022/04/10 10:38:22;;;;;;;4.50;1.70;;;;;;;9.21;38.35;98247.07;104865;1271;61864;-28
2022/04/10 10:40:53;;;;;;;5.30;1.80;;;;;;;9.16;37.18;98247.85;104736;1271;61128;-28
2022/04/10 10:43:25;;;;;;;8.00;1.80;;;;;;;8.97;37.96;98248.84;104625;1275;75515;-28
2022/04/10 10:45:54;;;;;;;6.50;1.80;;;;;;;9.13;37.59;98248.63;104801;1271;75765;-28
2022/04/10 10:48:44;;;;;;;3.60;1.90;;;;;;;9.24;35.73;98250.56;104777;1271;74504;-27
2022/04/10 10:51:15;;;;;;;2.90;1.10;;;;;;;9.39;37.70;98254.80;104939;1274;61058;-28
2022/04/10 10:53:57;;;;;;;3.20;1.40;;;;;;;9.24;36.88;98256.89;104936;1271;62894;-28
2022/04/10 10:56:31;;;;;;;5.30;1.30;;;;;;;9.27;36.46;98261.08;105087;1274;75583;-29
2022/04/10 10:59:27;;;;;;;5.00;1.90;;;;;;;9.53;36.31;98257.70;105119;1272;76211;-26
2022/04/10 11:02:19;;;;;;;2.80;1.20;;;;;;;9.73;35.76;98262.76;105082;1274;74149;-29
2022/04/10 11:05:32;;;;;;;6.60;1.80;;;;;;;9.71;35.88;98261.84;105101;1274;62017;-28
2022/04/10 11:08:01;;;;;;;6.60;1.80;;;;;;;9.68;35.41;98259.15;104854;1274;61163;-25
2022/04/10 11:10:52;;;;;;;4.70;1.90;;;;;;;10.08;33.85;98257.95;104850;1274;75612;-27
2022/04/10 11:13:42;;;;;;;3.30;1.60;;;;;;;9.87;35.46;98252.58;104852;1271;75997;-26
2022/04/10 11:16:12;;;;;;;8.90;2.50;;;;;;;9.87;36.71;98259.39;104970;1274;73142;-25
2022/04/10 11:18:53;;;;;;;3.50;1.70;;;;;;;9.89;36.48;98265.90;104832;1274;61080;-26
2022/04/10 11:21:22;;;;;;;1.70;1.10;;;;;;;10.06;37.10;98266.34;104792;1273;61231;-25
2022/04/10 11:23:59;;;;;;;9.30;3.10;;;;;;;10.09;35.31;98262.54;104773;1271;75605;-25
2022/04/10 11:26:35;;;;;;;5.00;1.40;;;;;;;9.96;37.05;98259.24;104844;1271;76243;-25
2022/04/10 11:29:05;;;;;;;5.70;1.70;;;;;;;9.91;36.99;98262.25;104857;1274;72769;-26
2022/04/10 11:31:51;;;;;;;2.40;1.30;;;;;;;10.20;36.49;98252.17;104892;1271;63655;-25
2022/04/10 11:34:25;;;;;;;1.50;1.00;;;;;;;10.14;37.16;98246.69;104718;1272;61166;-27
2022/04/10 11:36:57;;;;;;;4.00;1.20;;;;;;;9.99;36.78;98244.91;104710;1271;75398;-25
2022/04/10 11:39:44;;;;;;;8.10;1.50;;;;;;;9.67;36.79;98247.44;104695;1272;75923;-28
2022/04/10 11:42:14;;;;;;;8.20;2.30;;;;;;;9.84;36.13;98248.40;104840;1272;72872;-28
2022/04/10 11:44:44;;;;;;;2.20;1.40;;;;;;;9.46;35.43;98240.35;104631;1271;61174;-25
2022/04/10 11:47:12;;;;;;;1.60;1.10;;;;;;;9.40;36.03;98239.83;104903;1271;61046;-27
2022/04/10 11:49:52;;;;;;;2.80;1.30;;;;;;;9.37;35.71;98240.30;105082;1272;75745;-27
2022/04/10 11:52:21;;;;;;;4.20;1.80;;;;;;;9.37;34.99;98243.20;105102;1272;76040;-27
2022/04/10 11:54:50;;;;;;;4.90;1.10;;;;;;;9.48;35.13;98244.87;105115;1273;74405;-27
2022/04/10 11:57:20;;;;;;;2.60;1.40;;;;;;;9.71;35.65;98243.80;105116;1271;62396;-27
2022/04/10 11:59:49;;;;;;;3.80;1.30;;;;;;;9.57;34.26;98240.95;105091;1271;61977;-27
2022/04/10 12:02:19;;;;;;;5.70;2.10;;;;;;;9.58;36.24;98243.30;104876;1272;75539;-27
2022/04/10 12:05:00;;;;;;;4.10;2.10;;;;;;;9.64;36.01;98243.07;104999;1271;77103;-26
2022/04/10 12:07:29;;;;;;;5.60;2.60;;;;;;;9.65;34.33;98246.63;104781;1271;73385;-26
2022/04/10 12:09:58;;;;;;;4.60;1.80;;;;;;;9.77;35.43;98245.89;104844;1271;61831;-27